Terminal Aerodrome Forecast
Issued by NWS Charleston, WV

Home | Current Version | Previous Version | Text Only | Print | Product List | Glossary On
Versions: 1 2 3 4 5 6 7 8 9 10 11 12 13 14 15 16 17 18 19 20 21 22 23 24 25 26 27 28
000
FTUS41 KRLX 160100 AAA
TAFBKW
TAF AMD
KBKW 160121Z 1601/1624 32012G22KT P6SM OVC035
     FM160300 33009KT P6SM BKN035
     FM160800 VRB03KT P6SM BKN035
     FM161200 00000KT P6SM SKC
     FM161600 02005KT P6SM SKC
     FM162100 12007KT P6SM SKC=

USA.gov is the U.S. government's official web portal to all federal, state and local government web resources and services.